CheckWX is a tool to help pilots better visualize weather data.  It is not intended as a substitute for an official pre-flight weather briefing.

20:12:12 UTC

KOKV METAR
Winchester Regional Airport
Winchester, Virginia, USA
Current

17 mins ago

KOKV 231955Z AUTO 14011G14KT 10SM CLR 26/10 A2985 RMK AO2
Observed
Apr-23 @ 19:55 UTC
Wind
  • 140° at 11 KTS
  • Gusting to 14 KTS
Visibility
10 SM
Flight Rules
VFR
Cloud Levels
  • Clear skies
Temperature
26°C / 79°F
Dewpoint
10°C / 50°F
Humidity
37%
Altimeter
29.85" Hg
Pressure
1010.82 hPa
Previous

37 mins ago

KOKV 231935Z AUTO 14012G15KT 130V190 10SM CLR 26/10 A2987 RMK AO2
Observed
Apr-23 @ 19:35 UTC
Wind
  • 140° at 12 KTS
  • Gusting to 15 KTS
Visibility
10 SM
Flight Rules
VFR
Cloud Levels
  • Clear skies
Temperature
26°C / 79°F
Dewpoint
10°C / 50°F
Humidity
37%
Altimeter
29.87" Hg
Pressure
1011.52 hPa
Previous

57 mins ago

KOKV 231915Z AUTO 14007KT 10SM VCTS CLR 26/10 A2988 RMK AO2 LTG DSNT N AND NW
Observed
Apr-23 @ 19:15 UTC
Wind
  • 140° at 7 KTS
Visibility
10 SM
Flight Rules
VFR
Conditions
Area Thunderstorm
Cloud Levels
  • Clear skies
Temperature
26°C / 79°F
Dewpoint
10°C / 50°F
Humidity
37%
Altimeter
29.88" Hg
Pressure
1011.82 hPa